Latest Coastal Weather Observations for Low Rocky Point

IDT60701

Issued at 8:12 pm EST Friday 19 July 2019 (issued every 10 minutes, with the page automatically refreshed every 10 minutes)

About coastal observations | Map of coastal stations | Coastal observations for TAS | Marine services | Other Formats
Station Details ID: 097080 Name: LOW ROCKY POINT Lat: -42.98 Lon: 145.50 Height: 34.0 m
Data from the previous 72 hours. | See also: Recent months at Low Rocky Point
Date/Time
EST
Wind Sea
Height
m
Swell Vis
km
Cloud Weather Temp
°C
Press
hPa
Rain since
9am
mm
Dir  Spd
kts
Gust
kts
Height
m
Period
s
Dir
19/08:00pm NW 20 25 - - - - - - - 11.3 1015.3 -
19/07:30pm NW 18 23 - - - - - - - 11.0 1015.1 -
19/07:00pm WNW 22 27 - - - - - - - 11.1 1014.9 -
19/06:30pm WNW 19 22 - - - - - - - 10.6 1014.9 -
19/06:00pm WNW 21 25 - - - - - - - 10.6 1014.8 -
19/05:30pm WNW 21 24 - - - - - - - 11.0 1014.7 -
19/05:00pm NW 18 22 - - - - - - - 11.1 1014.5 -
19/04:30pm WNW 18 26 - - - - - - - 11.2 1014.6 -
19/04:00pm WNW 17 20 - - - - - - - 11.3 1014.8 -
19/03:30pm WNW 22 27 - - - - - - - 11.4 1014.5 -
19/03:00pm WNW 20 25 - - - - - - - 11.5 1014.5 -
19/02:30pm WNW 21 24 - - - - - - - 11.6 1014.3 -
19/02:00pm WNW 23 26 - - - - - - - 11.3 1014.0 -
19/01:30pm WNW 21 27 - - - - - - - 11.6 1013.8 -
19/01:00pm WNW 23 28 - - - - - - - 11.4 1013.7 -
19/12:30pm WNW 22 29 - - - - - - - 10.1 1013.8 -
19/12:00pm WNW 25 30 - - - - - - - 11.4 1013.8 -
19/11:35am WNW 21 31 - - - - - - - 10.3 1013.9 -
19/11:30am WNW 26 34 - - - - - - - 10.1 1013.9 -
19/11:00am WNW 28 33 - - - - - - - 10.7 1013.6 -
19/10:30am W 25 35 - - - - - - - 9.8 1013.4 -
19/10:10am WNW 25 35 - - - - - - - 11.0 1012.9 -
19/10:00am WNW 24 30 - - - - - - - 11.6 1012.7 -
19/09:30am WNW 25 32 - - - - - - - 11.5 1012.6 -
19/09:00am WNW 25 31 - - - - - - - 10.9 1012.2 -
19/08:30am WNW 31 39 - - - - - - - 10.8 1011.6 -
19/08:00am WNW 31 37 - - - - - - - 11.2 1011.2 -
19/07:47am WNW 27 37 - - - - - - - 11.0 1010.9 -
19/07:30am WNW 29 34 - - - - - - - 11.1 1010.8 -
19/07:00am WNW 29 36 - - - - - - - 11.0 1010.2 -
19/06:30am WNW 29 36 - - - - - - - 11.1 1009.7 -
19/06:00am WNW 32 39 - - - - - - - 10.9 1009.2 -
19/05:30am WNW 28 34 - - - - - - - 10.6 1008.8 -
19/05:00am WNW 31 37 - - - - - - - 10.1 1008.5 -
19/04:39am W 27 37 - - - - - - - 9.7 1008.5 -
19/04:30am W 28 34 - - - - - - - 10.3 1008.4 -
19/04:00am WNW 24 33 - - - - - - - 10.4 1008.2 -
19/03:30am W 27 34 - - - - - - - 10.6 1007.9 -
19/03:00am W 25 30 - - - - - - - 10.5 1008.0 -
19/02:30am W 21 28 - - - - - - - 9.7 1007.9 -
19/02:11am W 24 37 - - - - - - - 9.4 1007.7 -
19/02:00am W 27 34 - - - - - - - 8.9 1007.6 -
19/01:59am W 27 34 - - - - - - - 9.1 1007.6 -
19/01:42am WSW 25 32 - - - - - - - 9.1 1007.5 -
19/01:30am W 23 30 - - - - - - - 10.3 1007.1 -
19/01:03am W 25 37 - - - - - - - 10.0 1006.7 -
19/01:00am W 23 28 - - - - - - - 10.3 1006.6 -
19/12:31am W 26 36 - - - - - - - 9.2 1006.8 -
19/12:30am W 27 36 - - - - - - - 9.0 1006.7 -
19/12:15am W 23 35 - - - - - - - 10.0 1006.3 -
19/12:13am WSW 20 32 - - - - - - - 10.1 1006.3 -
19/12:00am WSW 18 24 - - - - - - - 9.5 1006.2 -
 
Date/Time
EST
Wind Sea
Height
m
Swell Vis
km
Cloud Weather Temp
°C
Press
hPa
Rain since
9am
mm
Dir  Spd
kts
Gust
kts
Height
m
Period
s
Dir
18/11:44pm W 25 36 - - - - - - - 9.7 1005.8 -
18/11:30pm WSW 22 28 - - - - - - - 10.0 1005.6 -
18/11:00pm WSW 19 24 - - - - - - - 9.9 1005.1 -
18/10:30pm W 22 29 - - - - - - - 10.2 1004.2 -
18/10:00pm WSW 20 27 - - - - - - - 9.8 1003.5 -
18/09:30pm WSW 19 25 - - - - - - - 9.3 1002.6 -
18/09:00pm WSW 18 23 - - - - - - - 9.2 1001.6 -
18/08:42pm NW 21 30 - - - - - - - 8.1 1001.6 -
18/08:39pm NNW 21 30 - - - - - - - 10.3 1001.4 -
18/08:30pm NNW 22 30 - - - - - - - 9.9 999.9 -
18/08:00pm NNW 22 32 - - - - - - - 10.2 1001.0 -
18/07:59pm NNW 22 32 - - - - - - - 10.1 1001.0 -
18/07:46pm NNW 26 38 - - - - - - - 10.5 1001.0 -
18/07:30pm NW 34 46 - - - - - - - 10.7 1001.4 -
18/07:28pm NW 35 46 - - - - - - - 10.6 1001.3 -
18/07:24pm NW 33 46 - - - - - - - 10.5 1001.2 -
18/07:18pm NW 28 42 - - - - - - - 10.5 1001.4 -
18/07:00pm NNW 19 30 - - - - - - - 9.5 1001.6 -
18/06:46pm N 17 27 - - - - - - - 9.2 1002.0 -
18/06:30pm NNW 18 26 - - - - - - - 9.3 1002.3 -
18/06:23pm NNW 16 26 - - - - - - - 9.2 1002.6 -
18/06:00pm NNW 18 26 - - - - - - - 9.2 1002.7 -
18/05:30pm N 15 20 - - - - - - - 9.3 1003.1 -
18/05:00pm NNW 17 25 - - - - - - - 10.0 1003.9 -
18/04:31pm NNW 19 29 - - - - - - - 10.9 1004.2 -
18/04:30pm NNW 19 27 - - - - - - - 10.9 1004.2 -
18/04:02pm NNW 20 30 - - - - - - - 11.0 1004.8 -
18/04:00pm NNW 20 27 - - - - - - - 11.0 1004.8 -
18/03:31pm NNW 20 30 - - - - - - - 11.1 1005.2 -
18/03:30pm NNW 19 28 - - - - - - - 11.1 1005.3 -
18/03:00pm NNW 23 38 - - - - - - - 11.1 1005.4 -
18/02:38pm NNW 25 35 - - - - - - - 11.3 1006.0 -
18/02:30pm NNW 26 33 - - - - - - - 11.4 1006.1 -
18/02:00pm NNW 23 33 - - - - - - - 11.4 1006.3 -
18/01:36pm NNW 25 35 - - - - - - - 11.3 1006.7 -
18/01:30pm NW 27 34 - - - - - - - 11.6 1006.8 -
18/01:00pm NW 26 34 - - - - - - - 11.3 1007.3 -
18/12:30pm NW 26 31 - - - - - - - 11.1 1007.9 -
18/12:00pm NW 24 31 - - - - - - - 11.2 1008.7 -
18/11:30am NW 22 28 - - - - - - - 11.1 1009.1 -
18/11:00am NW 21 28 - - - - - - - 11.7 1009.6 -
18/10:30am NW 20 27 - - - - - - - 10.6 1010.0 -
18/10:00am NW 16 20 - - - - - - - 10.8 1010.4 -
18/09:30am NW 17 21 - - - - - - - 10.6 1010.1 -
18/09:00am WNW 15 19 - - - - - - - 10.6 1010.4 -
18/08:30am NW 12 16 - - - - - - - 10.1 1010.4 -
18/08:00am WNW 13 18 - - - - - - - 10.3 1010.3 -
18/07:30am WNW 9 17 - - - - - - - 9.6 1010.7 -
18/07:00am W 6 8 - - - - - - - 9.1 1010.3 -
18/06:30am WNW 12 16 - - - - - - - 9.4 1010.3 -
18/06:00am W 11 15 - - - - - - - 9.3 1010.3 -
18/05:30am WSW 13 16 - - - - - - - 8.9 1009.9 -
18/05:00am SSW 6 13 - - - - - - - 8.2 1009.7 -
18/04:30am WSW 13 18 - - - - - - - 9.8 1009.9 -
18/04:00am SW 13 17 - - - - - - - 9.2 1009.6 -
18/03:30am SW 14 19 - - - - - - - 9.5 1009.2 -
18/03:00am SW 16 22 - - - - - - - 9.6 1009.0 -
18/02:30am SW 19 27 - - - - - - - 9.4 1008.7 -
18/02:18am SW 17 27 - - - - - - - 9.3 1008.4 -
18/02:00am SW 21 29 - - - - - - - 9.0 1008.2 -
18/01:35am SW 21 33 - - - - - - - 8.8 1008.0 -
18/01:30am SW 20 29 - - - - - - - 9.7 1008.0 -
18/01:01am SW 19 29 - - - - - - - 9.6 1007.7 -
18/01:00am SW 20 29 - - - - - - - 9.5 1007.7 -
18/12:45am SW 21 35 - - - - - - - 9.8 1007.4 -
18/12:30am SW 21 29 - - - - - - - 9.5 1007.3 -
18/12:00am SW 21 31 - - - - - - - 9.6 1006.8 -
 
Date/Time
EST
Wind Sea
Height
m
Swell Vis
km
Cloud Weather Temp
°C
Press
hPa
Rain since
9am
mm
Dir  Spd
kts
Gust
kts
Height
m
Period
s
Dir
17/11:30pm SW 21 31 - - - - - - - 8.7 1006.3 -
17/11:20pm SW 19 29 - - - - - - - 8.4 1006.2 -
17/11:00pm SW 20 29 - - - - - - - 8.1 1005.8 -
17/10:30pm SW 22 35 - - - - - - - 8.3 1005.5 -
17/10:00pm SW 19 29 - - - - - - - 7.5 1004.9 -
17/09:33pm SW 21 34 - - - - - - - 8.6 1004.5 -
17/09:30pm SW 21 30 - - - - - - - 8.6 1004.6 -
17/09:00pm WSW 21 34 - - - - - - - 8.8 1004.1 -
17/08:48pm WSW 27 37 - - - - - - - 8.5 1003.9 -
17/08:30pm WSW 29 37 - - - - - - - 8.9 1003.6 -
17/08:00pm WSW 26 36 - - - - - - - 9.0 1003.4 -
17/07:30pm WSW 25 41 - - - - - - - 8.6 1003.0 -
17/07:00pm WSW 27 39 - - - - - - - 9.6 1002.3 -
17/06:30pm WSW 23 35 - - - - - - - 8.6 1001.9 -
17/06:09pm WSW 29 40 - - - - - - - 9.7 1001.5 -
17/06:00pm WSW 27 34 - - - - - - - 9.8 1001.4 -
17/05:30pm WSW 29 35 - - - - - - - 9.0 1001.0 -
17/05:00pm WSW 26 40 - - - - - - - 7.9 1000.8 -
17/04:30pm WSW 27 43 - - - - - - - 8.0 1000.5 -
17/04:00pm WSW 27 39 - - - - - - - 8.5 1000.2 -
17/03:42pm W 29 39 - - - - - - - 10.8 999.9 -
17/03:30pm W 29 37 - - - - - - - 11.2 1000.0 -
17/03:00pm W 31 40 - - - - - - - 10.9 1000.0 -
17/02:30pm WSW 30 41 - - - - - - - 10.4 999.7 -
17/02:08pm W 31 41 - - - - - - - 10.4 999.5 -
17/02:00pm W 29 38 - - - - - - - 10.2 999.5 -
17/01:37pm WSW 27 40 - - - - - - - 10.2 999.4 -
17/01:30pm WSW 27 34 - - - - - - - 10.7 999.4 -
17/01:22pm WSW 29 39 - - - - - - - 10.4 999.4 -
17/01:00pm W 31 39 - - - - - - - 10.5 999.0 -
17/12:47pm WSW 30 45 - - - - - - - 10.2 999.0 -
17/12:32pm WNW 32 42 - - - - - - - 10.4 999.0 -
17/12:30pm WNW 33 42 - - - - - - - 10.2 998.9 -
17/12:00pm WNW 29 34 - - - - - - - 10.5 999.5 -
17/11:30am W 33 41 - - - - - - - 9.6 999.9 -
17/11:02am WNW 35 48 - - - - - - - 10.5 999.8 -
17/11:00am WNW 34 41 - - - - - - - 10.9 999.9 -
17/10:30am WNW 33 44 - - - - - - - 11.0 1000.3 -
17/10:03am NW 34 47 - - - - - - - 10.8 1001.0 -
17/10:00am NW 35 42 - - - - - - - 10.8 1001.1 -
17/09:52am NW 32 44 - - - - - - - 10.7 1001.3 -
17/09:31am WNW 26 40 - - - - - - - 10.7 1002.0 -
17/09:30am WNW 25 33 - - - - - - - 10.4 1002.2 -
17/09:00am NW 31 41 - - - - - - - 10.5 1002.8 -
17/08:30am NW 33 44 - - - - - - - 10.8 1002.8 -
17/08:01am NW 31 41 - - - - - - - 10.8 1003.3 -
17/08:00am NW 32 41 - - - - - - - 10.7 1003.3 -
17/07:30am NW 32 42 - - - - - - - 10.9 1004.0 -
17/07:13am NW 31 41 - - - - - - - 10.7 1004.4 -
17/07:00am NW 30 39 - - - - - - - 10.3 1004.7 -
17/06:32am WNW 27 37 - - - - - - - 10.2 1005.2 -
17/06:30am WNW 29 38 - - - - - - - 10.1 1005.3 -
17/06:12am WNW 25 35 - - - - - - - 11.2 1005.4 -
17/06:00am NW 26 33 - - - - - - - 10.7 1005.6 -
17/05:30am WNW 28 35 - - - - - - - 10.9 1006.2 -
17/05:16am WNW 28 38 - - - - - - - 10.8 1006.2 -
17/05:00am WNW 23 29 - - - - - - - 10.5 1006.6 -
17/04:53am WNW 27 37 - - - - - - - 10.0 1006.7 -
17/04:30am WNW 27 33 - - - - - - - 10.6 1006.9 -
17/04:02am WNW 24 34 - - - - - - - 10.3 1007.3 -
17/04:00am WNW 24 29 - - - - - - - 10.3 1007.4 -
17/03:30am WNW 24 33 - - - - - - - 10.1 1008.1 -
17/03:00am WNW 26 34 - - - - - - - 10.3 1008.8 -
17/02:30am WNW 24 30 - - - - - - - 10.3 1009.0 -
17/02:07am WNW 25 38 - - - - - - - 10.5 1009.3 -
17/02:00am WNW 23 28 - - - - - - - 10.5 1009.5 -
17/01:34am WNW 25 35 - - - - - - - 10.8 1009.8 -
17/01:30am WNW 24 30 - - - - - - - 11.0 1009.9 -
17/01:00am WNW 26 32 - - - - - - - 11.1 1010.3 -
17/12:30am WNW 27 32 - - - - - - - 10.3 1010.5 -
17/12:00am W 29 36 - - - - - - - 10.4 1010.8 -
 
Date/Time
EST
Wind Sea
Height
m
Swell Vis
km
Cloud Weather Temp
°C
Press
hPa
Rain since
9am
mm
Dir  Spd
kts
Gust
kts
Height
m
Period
s
Dir
16/11:30pm WNW 26 31 - - - - - - - 11.2 1010.9 -
16/11:00pm W 29 35 - - - - - - - 10.4 1011.3 -
16/10:30pm W 25 32 - - - - - - - 10.8 1011.4 -
16/10:00pm W 27 34 - - - - - - - 10.8 1011.7 -
16/09:30pm W 24 31 - - - - - - - 11.1 1012.0 -
16/09:20pm W 23 33 - - - - - - - 11.3 1012.0 -
16/09:00pm W 22 25 - - - - - - - 11.1 1012.2 -
16/08:30pm W 24 30 - - - - - - - 11.0 1012.5 -

Other formats

Comma delimited format used in spreadsheet applications
http://www.bom.gov.au/fwo/IDT60701/IDT60701.95961.axf

JavaScript Object Notation format (JSON) in row-major order
http://www.bom.gov.au/fwo/IDT60701/IDT60701.95961.json

Data quality

Most of these data are generated automatically and are frequently updated. Quality checks on data are not normally performed. It is possible for incorrect values to appear. Refer to information at About Latest Weather Observations and please check the disclaimer before using these data.